createdAt,value
2019-03-19T00:00:30.297Z,91.70
2019-03-19T00:02:59.367Z,92.00
2019-03-19T00:05:28.309Z,92.30
2019-03-19T00:07:57.613Z,92.40
2019-03-19T00:10:26.657Z,92.20
2019-03-19T00:20:21.324Z,93.10
2019-03-19T00:22:50.368Z,93.20
2019-03-19T00:25:29.511Z,92.90
2019-03-19T00:27:50.468Z,92.90
2019-03-19T00:30:19.442Z,93.30
2019-03-19T00:32:50.961Z,93.20
2019-03-19T00:35:20.131Z,93.20
2019-03-19T00:40:18.048Z,93.00
2019-03-19T00:42:47.009Z,92.90
2019-03-19T00:47:45.175Z,92.90
2019-03-19T00:50:14.389Z,93.00
2019-03-19T00:52:43.463Z,93.00
2019-03-19T00:55:13.028Z,93.30
2019-03-19T00:57:45.095Z,93.40
2019-03-19T01:02:42.602Z,93.40
2019-03-19T01:05:11.560Z,93.50
2019-03-19T01:10:09.714Z,93.70
2019-03-19T01:12:38.797Z,93.70
2019-03-19T01:15:08.813Z,93.80
2019-03-19T01:17:37.833Z,93.80
2019-03-19T01:20:08.110Z,93.70
2019-03-19T01:25:06.590Z,93.50
2019-03-19T01:27:35.542Z,93.40
2019-03-19T01:30:05.310Z,93.40
2019-03-19T01:32:34.390Z,93.50
2019-03-19T01:35:06.159Z,93.50
2019-03-19T01:40:03.595Z,93.90
2019-03-19T01:42:32.492Z,94.10
2019-03-19T01:47:33.467Z,94.00
2019-03-19T01:50:02.626Z,93.90
2019-03-19T01:52:31.805Z,94.00
2019-03-19T01:57:29.506Z,93.90
2019-03-19T01:59:58.563Z,93.90
2019-03-19T02:02:31.209Z,93.90
2019-03-19T02:05:00.489Z,93.90
2019-03-19T02:09:58.365Z,94.80
2019-03-19T02:17:24.450Z,94.00
2019-03-19T02:22:27.825Z,94.10
2019-03-19T02:24:56.690Z,94.10
2019-03-19T02:29:54.371Z,94.30
2019-03-19T02:32:23.295Z,94.40
2019-03-19T02:34:54.431Z,94.50
2019-03-19T02:37:23.891Z,94.60
2019-03-19T02:39:52.801Z,94.60
2019-03-19T02:42:21.743Z,94.70
2019-03-19T02:44:50.875Z,94.60
2019-03-19T02:47:20.016Z,94.50
2019-03-19T02:52:17.753Z,94.20
2019-03-19T02:54:46.905Z,94.40
2019-03-19T02:57:16.082Z,94.50
2019-03-19T02:59:45.150Z,94.70
2019-03-19T03:02:14.341Z,94.50
2019-03-19T03:04:43.210Z,94.70
2019-03-19T03:12:09.334Z,94.80
2019-03-19T03:29:33.130Z,94.30
2019-03-19T03:34:53.390Z,94.30
2019-03-19T03:37:22.289Z,94.40
2019-03-19T03:40:10.740Z,94.50
2019-03-19T03:42:42.807Z,94.50
2019-03-19T03:45:11.891Z,94.50
2019-03-19T03:47:40.799Z,94.60
2019-03-19T03:50:09.792Z,95.00
2019-03-19T03:52:39.051Z,95.10
2019-03-19T03:55:08.510Z,95.00
2019-03-19T04:00:08.520Z,94.80
2019-03-19T04:02:37.553Z,95.00
2019-03-19T04:05:06.638Z,95.00
2019-03-19T04:07:35.823Z,94.90
2019-03-19T04:12:33.744Z,94.70
2019-03-19T04:15:12.016Z,94.60
2019-03-19T04:17:41.521Z,94.50
2019-03-19T04:20:17.214Z,94.60
2019-03-19T04:25:15.116Z,94.20
2019-03-19T04:27:44.623Z,94.10
2019-03-19T04:32:42.384Z,94.00
2019-03-19T04:35:11.813Z,93.90
2019-03-19T04:37:40.956Z,93.90
2019-03-19T04:40:10.381Z,93.90
2019-03-19T04:47:39.389Z,93.90
2019-03-19T04:50:08.948Z,94.20
2019-03-19T04:57:35.138Z,94.20
2019-03-19T05:00:04.735Z,94.00
2019-03-19T05:02:33.798Z,93.90
2019-03-19T05:09:59.969Z,94.30
2019-03-19T05:12:29.107Z,94.40
2019-03-19T05:17:26.946Z,94.60
2019-03-19T05:19:55.719Z,94.70
2019-03-19T05:24:52.807Z,94.80
2019-03-19T05:29:49.987Z,95.20
2019-03-19T05:32:19.117Z,95.00
2019-03-19T05:39:45.202Z,94.80
2019-03-19T05:42:14.715Z,94.90
2019-03-19T05:44:43.733Z,94.90
2019-03-19T05:47:12.733Z,94.90
2019-03-19T05:54:41.163Z,94.80
2019-03-19T05:57:10.496Z,94.80
2019-03-19T05:59:40.139Z,94.70
2019-03-19T06:02:09.193Z,94.80
2019-03-19T06:04:38.457Z,94.90
2019-03-19T06:14:36.448Z,95.10
2019-03-19T06:17:05.664Z,95.10
2019-03-19T06:19:34.852Z,95.30
2019-03-19T06:22:03.880Z,95.30
2019-03-19T06:24:32.929Z,95.60
2019-03-19T06:27:06.309Z,95.50
2019-03-19T06:29:35.694Z,95.40
2019-03-19T06:37:05.069Z,95.10
2019-03-19T06:39:35.323Z,95.20
2019-03-19T06:44:33.414Z,95.40
2019-03-19T06:47:02.472Z,95.90
2019-03-19T06:49:31.592Z,95.30
2019-03-19T06:52:00.650Z,95.10
2019-03-19T06:56:58.355Z,94.50
2019-03-19T06:59:27.414Z,94.30
2019-03-19T07:01:56.561Z,94.20
2019-03-19T07:04:25.553Z,94.30
2019-03-19T07:06:54.745Z,94.20
2019-03-19T07:09:27.006Z,94.30
2019-03-19T07:12:02.956Z,94.20
2019-03-19T07:14:31.730Z,94.00
2019-03-19T07:19:29.277Z,93.60
2019-03-19T07:24:32.172Z,92.70
2019-03-19T07:27:01.059Z,92.80
2019-03-19T07:29:30.075Z,92.60
2019-03-19T07:32:01.910Z,92.70
2019-03-19T07:34:31.391Z,92.40
2019-03-19T07:37:03.610Z,91.70
2019-03-19T07:39:32.759Z,91.40
2019-03-19T07:47:09.013Z,91.20
2019-03-19T07:49:38.125Z,91.50
2019-03-19T07:52:07.093Z,91.10
2019-03-19T07:57:06.500Z,90.80
2019-03-19T07:59:36.071Z,90.20
2019-03-19T08:04:37.603Z,89.10
2019-03-19T08:07:06.545Z,90.00
2019-03-19T08:09:35.779Z,90.70
2019-03-19T08:12:04.806Z,91.00
2019-03-19T08:14:33.840Z,91.50
2019-03-19T08:17:05.025Z,92.00
2019-03-19T08:19:34.106Z,92.10
2019-03-19T08:22:02.785Z,92.40
2019-03-19T08:27:00.043Z,92.90
2019-03-19T08:29:28.851Z,92.90
2019-03-19T08:31:57.675Z,93.90
2019-03-19T08:34:26.428Z,94.40
2019-03-19T08:36:55.546Z,94.90
2019-03-19T08:39:24.573Z,95.00
2019-03-19T08:41:53.745Z,95.10
2019-03-19T08:44:27.672Z,95.50
2019-03-19T08:49:23.563Z,94.80
2019-03-19T08:51:52.370Z,95.20
2019-03-19T08:54:21.364Z,95.50
2019-03-19T08:56:50.505Z,95.70
2019-03-19T08:59:19.346Z,94.30
2019-03-19T09:01:48.213Z,94.10
2019-03-19T09:04:18.379Z,94.90
2019-03-19T09:06:49.083Z,94.10
2019-03-19T09:11:49.081Z,89.80
2019-03-19T09:14:18.228Z,91.00
2019-03-19T09:16:47.147Z,89.50
2019-03-19T09:19:15.968Z,89.80
2019-03-19T09:21:44.841Z,85.10
2019-03-19T09:24:13.762Z,83.90
2019-03-19T09:26:42.409Z,85.60
2019-03-19T09:29:16.703Z,80.30
2019-03-19T09:34:09.925Z,78.80
2019-03-19T09:36:38.642Z,82.80
2019-03-19T09:39:08.648Z,80.90
2019-03-19T09:41:37.499Z,77.20
2019-03-19T09:44:06.213Z,74.50
2019-03-19T09:46:35.219Z,77.80
2019-03-19T09:49:04.068Z,75.90
2019-03-19T09:51:33.026Z,74.70
2019-03-19T09:56:30.237Z,74.30
2019-03-19T09:58:59.240Z,74.70
2019-03-19T10:01:27.864Z,72.50
2019-03-19T10:03:56.507Z,75.20
2019-03-19T10:06:25.225Z,70.80
2019-03-19T10:08:53.861Z,69.10
2019-03-19T10:11:22.489Z,65.60
2019-03-19T10:13:51.124Z,69.70
2019-03-19T10:18:48.012Z,70.70
2019-03-19T10:21:16.753Z,67.30
2019-03-19T10:23:45.381Z,64.40
2019-03-19T10:26:14.102Z,63.60
2019-03-19T10:28:42.753Z,59.30
2019-03-19T10:31:11.488Z,61.30
2019-03-19T10:33:40.125Z,62.50
2019-03-19T10:38:37.384Z,62.90
2019-03-19T10:41:06.040Z,61.70
2019-03-19T10:43:34.697Z,66.40
2019-03-19T10:46:03.365Z,66.90
2019-03-19T10:48:32.054Z,63.80
2019-03-19T10:51:00.684Z,66.00
2019-03-19T10:53:29.327Z,68.00
2019-03-19T10:55:57.969Z,64.70
2019-03-19T11:00:54.888Z,65.40
2019-03-19T11:03:23.683Z,64.30
2019-03-19T11:05:52.356Z,64.60
2019-03-19T11:08:20.997Z,62.10
2019-03-19T11:10:49.733Z,60.10
2019-03-19T11:13:18.377Z,60.80
2019-03-19T11:15:47.087Z,59.50
2019-03-19T11:18:15.795Z,58.30
2019-03-19T11:23:14.477Z,59.10
2019-03-19T11:25:53.943Z,58.10
2019-03-19T11:28:13.935Z,57.70
2019-03-19T11:30:42.673Z,58.30
2019-03-19T11:33:11.313Z,56.50
2019-03-19T11:35:39.951Z,55.20
2019-03-19T11:38:08.631Z,55.60
2019-03-19T11:45:34.218Z,54.80
2019-03-19T11:48:02.858Z,54.80
2019-03-19T11:50:33.316Z,55.30
2019-03-19T11:53:01.979Z,54.70
2019-03-19T11:55:30.630Z,53.10
2019-03-19T11:57:59.250Z,51.80
2019-03-19T12:00:30.705Z,51.10
2019-03-19T12:05:27.597Z,52.70
2019-03-19T12:07:56.249Z,54.80
2019-03-19T12:10:24.936Z,54.10
2019-03-19T12:12:53.574Z,57.40
2019-03-19T12:15:22.326Z,57.90
2019-03-19T12:17:50.988Z,57.40
2019-03-19T12:20:20.896Z,58.30
2019-03-19T12:22:49.778Z,60.50
2019-03-19T12:27:46.776Z,54.20
2019-03-19T12:30:22.354Z,54.20
2019-03-19T12:32:46.029Z,53.70
2019-03-19T12:35:15.027Z,53.50
2019-03-19T12:37:43.648Z,52.20
2019-03-19T12:40:13.009Z,51.20
2019-03-19T12:42:41.907Z,50.20
2019-03-19T12:45:12.104Z,46.70
2019-03-19T12:50:10.779Z,44.60
2019-03-19T12:52:39.435Z,46.00
2019-03-19T12:55:08.200Z,43.00
2019-03-19T12:57:36.836Z,42.70
2019-03-19T13:00:08.643Z,44.20
2019-03-19T13:02:37.268Z,50.40
2019-03-19T13:05:06.179Z,50.80
2019-03-19T13:07:34.815Z,53.60
2019-03-19T13:12:32.673Z,53.30
2019-03-19T13:15:01.314Z,54.10
2019-03-19T13:17:29.954Z,54.00
2019-03-19T13:19:58.681Z,54.70
2019-03-19T13:22:27.319Z,54.30
2019-03-19T13:24:56.061Z,54.80
2019-03-19T13:27:24.713Z,54.20
2019-03-19T13:29:53.346Z,58.80
2019-03-19T13:34:50.667Z,52.60
2019-03-19T13:37:19.391Z,51.80
2019-03-19T13:39:48.026Z,50.10
2019-03-19T13:42:16.741Z,50.80
2019-03-19T13:44:45.386Z,50.30
2019-03-19T13:47:14.111Z,51.00
2019-03-19T13:49:43.492Z,49.10
2019-03-19T13:54:40.609Z,47.50
2019-03-19T13:57:09.327Z,48.30
2019-03-19T13:59:37.984Z,46.70
2019-03-19T14:02:06.660Z,48.00
2019-03-19T14:04:35.306Z,46.70
2019-03-19T14:07:04.012Z,44.90
2019-03-19T14:09:32.974Z,44.20
2019-03-19T14:12:01.700Z,43.00
2019-03-19T14:16:58.674Z,43.30
2019-03-19T14:19:27.415Z,43.60
2019-03-19T14:21:56.408Z,42.80
2019-03-19T14:24:25.042Z,42.90
2019-03-19T14:26:53.733Z,42.10
2019-03-19T14:29:22.360Z,41.60
2019-03-19T14:31:50.993Z,41.10
2019-03-19T14:34:19.639Z,40.50
2019-03-19T14:39:16.977Z,40.30
2019-03-19T14:41:45.784Z,41.60
2019-03-19T14:44:14.530Z,42.00
2019-03-19T14:46:44.030Z,41.60
2019-03-19T14:49:13.155Z,42.30
2019-03-19T14:51:41.893Z,43.10
2019-03-19T14:54:10.760Z,43.20
2019-03-19T14:56:39.567Z,44.00
2019-03-19T15:01:36.786Z,45.80
2019-03-19T15:04:05.541Z,46.80
2019-03-19T15:06:34.198Z,46.10
2019-03-19T15:09:03.797Z,46.50
2019-03-19T15:11:32.430Z,46.40
2019-03-19T15:14:01.468Z,45.90
2019-03-19T15:16:30.126Z,45.80
2019-03-19T15:18:59.012Z,45.70
2019-03-19T15:23:55.934Z,46.00
2019-03-19T15:26:24.562Z,46.30
2019-03-19T15:28:53.377Z,47.10
2019-03-19T15:31:29.550Z,47.40
2019-03-19T15:33:52.886Z,46.40
2019-03-19T15:36:21.810Z,45.70
2019-03-19T15:38:50.643Z,46.10
2019-03-19T15:41:19.531Z,45.80
2019-03-19T15:46:16.851Z,45.10
2019-03-19T15:48:45.781Z,45.50
2019-03-19T15:51:14.983Z,45.10
2019-03-19T15:53:43.943Z,45.00
2019-03-19T15:56:12.941Z,45.00
2019-03-19T15:58:41.833Z,44.20
2019-03-19T16:01:10.740Z,44.40
2019-03-19T16:06:08.053Z,44.50
2019-03-19T16:08:37.269Z,45.00
2019-03-19T16:11:06.117Z,45.00
2019-03-19T16:13:35.115Z,44.20
2019-03-19T16:16:04.070Z,44.30
2019-03-19T16:18:32.926Z,45.30
2019-03-19T16:21:01.852Z,46.10
2019-03-19T16:23:30.717Z,46.10
2019-03-19T16:28:28.006Z,46.30
2019-03-19T16:30:56.949Z,47.70
2019-03-19T16:33:25.811Z,47.60
2019-03-19T16:35:54.751Z,46.60
2019-03-19T16:38:23.684Z,46.20
2019-03-19T16:40:52.904Z,45.60
2019-03-19T16:43:21.873Z,45.30
2019-03-19T16:45:50.721Z,45.90
2019-03-19T16:50:48.057Z,46.80
2019-03-19T16:53:17.221Z,47.90
2019-03-19T16:55:46.057Z,48.30
2019-03-19T16:58:15.136Z,49.70
2019-03-19T17:00:43.966Z,50.30
2019-03-19T17:03:12.981Z,50.40
2019-03-19T17:05:42.166Z,51.60
2019-03-19T17:08:11.036Z,56.60
2019-03-19T17:13:08.818Z,54.20
2019-03-19T17:15:37.702Z,54.30
2019-03-19T17:18:06.705Z,54.90
2019-03-19T17:20:35.743Z,56.00
2019-03-19T17:23:04.655Z,56.60
2019-03-19T17:25:33.926Z,57.00
2019-03-19T17:28:03.031Z,56.30
2019-03-19T17:30:31.961Z,66.30
2019-03-19T17:35:30.475Z,57.80
2019-03-19T17:37:59.387Z,58.50
2019-03-19T17:40:28.532Z,59.10
2019-03-19T17:42:57.632Z,59.60
2019-03-19T17:45:26.363Z,60.40
2019-03-19T17:47:55.069Z,60.60
2019-03-19T17:50:23.783Z,61.30
2019-03-19T17:57:49.412Z,61.50
2019-03-19T18:02:51.030Z,61.90
2019-03-19T18:05:19.887Z,63.60
2019-03-19T18:07:48.695Z,63.90
2019-03-19T18:10:17.564Z,65.20
2019-03-19T18:12:49.579Z,64.40
2019-03-19T18:15:21.020Z,65.80
2019-03-19T18:20:18.400Z,65.30
2019-03-19T18:22:57.676Z,65.70
2019-03-19T18:27:55.443Z,64.90
2019-03-19T18:30:24.752Z,64.30
2019-03-19T18:32:53.811Z,64.10
2019-03-19T18:35:22.819Z,64.20
2019-03-19T18:42:51.075Z,64.70
2019-03-19T18:45:20.104Z,65.60
2019-03-19T18:48:08.848Z,66.30
2019-03-19T18:50:40.086Z,66.40
2019-03-19T18:53:09.329Z,66.60
2019-03-19T18:58:07.128Z,66.70
2019-03-19T19:00:36.238Z,66.80
2019-03-19T19:03:05.170Z,67.00
2019-03-19T19:08:02.887Z,68.40
2019-03-19T19:10:31.869Z,68.90
2019-03-19T19:13:00.872Z,68.90
2019-03-19T19:15:29.844Z,69.00
2019-03-19T19:17:58.824Z,69.60
2019-03-19T19:20:27.823Z,70.10
2019-03-19T19:22:56.692Z,70.70
2019-03-19T19:33:00.868Z,73.60
2019-03-19T19:35:22.263Z,74.10
2019-03-19T19:37:51.690Z,74.10
2019-03-19T19:40:20.731Z,74.00
2019-03-19T19:42:49.677Z,73.90
2019-03-19T19:45:18.650Z,74.00
2019-03-19T19:47:47.768Z,73.50
2019-03-19T19:52:48.466Z,74.60
2019-03-19T19:55:17.535Z,74.60
2019-03-19T19:57:46.732Z,75.00
2019-03-19T20:00:16.605Z,75.40
2019-03-19T20:02:45.736Z,75.70
2019-03-19T20:05:14.712Z,76.00
2019-03-19T20:07:43.488Z,79.50
2019-03-19T20:12:43.527Z,76.20
2019-03-19T20:15:12.691Z,76.60
2019-03-19T20:17:41.650Z,76.40
2019-03-19T20:22:40.055Z,75.90
2019-03-19T20:25:09.122Z,76.60
2019-03-19T20:27:38.248Z,76.80
2019-03-19T20:32:37.039Z,77.10
2019-03-19T20:35:07.530Z,77.40
2019-03-19T20:37:36.896Z,77.40
2019-03-19T20:40:07.005Z,78.10
2019-03-19T20:42:36.193Z,77.80
2019-03-19T20:45:05.797Z,77.90
2019-03-19T20:47:34.986Z,77.10
2019-03-19T20:50:04.513Z,77.10
2019-03-19T20:55:02.306Z,77.70
2019-03-19T20:57:34.421Z,78.20
2019-03-19T21:00:03.326Z,78.50
2019-03-19T21:02:37.382Z,79.00
2019-03-19T21:05:06.469Z,79.20
2019-03-19T21:07:39.660Z,79.20
2019-03-19T21:12:59.333Z,79.50
2019-03-19T21:23:22.918Z,79.50
2019-03-19T21:25:58.321Z,79.50
2019-03-19T21:28:28.238Z,79.20
2019-03-19T21:31:00.846Z,79.40
2019-03-19T21:33:50.775Z,79.80
2019-03-19T21:36:19.926Z,79.50
2019-03-19T21:39:30.506Z,79.90
2019-03-19T21:46:21.084Z,79.60
2019-03-19T21:55:07.159Z,80.30
2019-03-19T22:03:48.888Z,80.70
2019-03-19T22:09:21.688Z,80.90
2019-03-19T22:17:13.551Z,81.20
2019-03-19T22:24:40.463Z,81.10
2019-03-19T22:30:25.624Z,81.00
2019-03-19T22:32:54.928Z,81.10
2019-03-19T22:35:26.756Z,81.30
2019-03-19T22:40:25.121Z,81.50
2019-03-19T22:42:54.903Z,81.30
2019-03-19T22:45:24.090Z,88.10
2019-03-19T22:50:25.207Z,82.50
2019-03-19T22:52:54.223Z,82.40
2019-03-19T22:55:29.085Z,82.80
2019-03-19T22:57:53.979Z,82.00
2019-03-19T23:00:51.456Z,81.60
2019-03-19T23:03:20.681Z,81.30
2019-03-19T23:08:28.610Z,82.10
2019-03-19T23:11:01.003Z,82.30
2019-03-19T23:18:47.239Z,83.50
2019-03-19T23:21:16.261Z,83.20
2019-03-19T23:23:48.272Z,82.70
2019-03-19T23:26:17.321Z,83.00
2019-03-19T23:28:51.670Z,83.30
2019-03-19T23:33:49.130Z,84.10
2019-03-19T23:36:18.329Z,84.00
2019-03-19T23:41:20.334Z,84.80
2019-03-19T23:49:19.376Z,84.20
2019-03-19T23:51:48.132Z,84.20
2019-03-19T23:54:17.008Z,84.80
2019-03-19T23:56:46.177Z,85.40
2019-03-19T23:59:15.077Z,85.50
